createdAt,value
2018-11-25T00:00:48.082Z,0.00
2018-11-25T00:01:44.911Z,0.00
2018-11-25T00:05:53.079Z,0.00
2018-11-25T00:16:33.034Z,0.00
2018-11-25T00:17:17.713Z,0.00
2018-11-25T00:18:31.648Z,0.00
2018-11-25T00:19:40.626Z,0.00
2018-11-25T00:22:17.898Z,0.00
2018-11-25T00:26:07.010Z,0.00
2018-11-25T00:27:13.502Z,0.00
2018-11-25T00:28:00.955Z,0.00
2018-11-25T00:29:35.967Z,0.00
2018-11-25T00:30:21.464Z,0.00
2018-11-25T00:33:12.034Z,0.00
2018-11-25T00:33:41.593Z,0.00
2018-11-25T00:36:17.139Z,0.00
2018-11-25T00:37:04.505Z,0.00
2018-11-25T00:53:57.910Z,0.00
2018-11-25T00:56:06.071Z,0.00
2018-11-25T00:58:51.616Z,0.00
2018-11-25T01:00:04.632Z,0.00
2018-11-25T01:02:22.875Z,0.00
2018-11-25T01:03:16.864Z,0.00
2018-11-25T01:05:43.756Z,0.00
2018-11-25T01:08:20.749Z,0.00
2018-11-25T01:09:19.803Z,0.00
2018-11-25T01:10:15.734Z,0.00
2018-11-25T01:11:15.234Z,0.00
2018-11-25T01:13:55.564Z,0.00
2018-11-25T01:16:42.777Z,0.00
2018-11-25T01:19:01.816Z,0.00
2018-11-25T01:19:52.748Z,0.00
2018-11-25T01:21:23.308Z,0.00
2018-11-25T01:22:02.309Z,0.00
2018-11-25T01:22:53.336Z,0.00
2018-11-25T01:25:29.411Z,0.00
2018-11-25T01:26:25.241Z,0.00
2018-11-25T01:29:23.965Z,0.00
2018-11-25T01:32:01.360Z,0.00
2018-11-25T01:33:05.306Z,0.00
2018-11-25T01:33:33.382Z,0.00
2018-11-25T01:34:53.051Z,0.00
2018-11-25T01:35:51.018Z,0.00
2018-11-25T01:36:34.933Z,0.00
2018-11-25T01:37:30.937Z,0.00
2018-11-25T01:38:29.449Z,0.00
2018-11-25T01:39:32.406Z,0.00
2018-11-25T01:42:08.397Z,0.00
2018-11-25T01:43:09.958Z,0.00
2018-11-25T01:44:14.695Z,0.00
2018-11-25T01:47:00.878Z,0.00
2018-11-25T01:47:46.839Z,0.00
2018-11-25T01:49:01.288Z,0.00
2018-11-25T01:49:44.262Z,0.00
2018-11-25T01:50:37.882Z,0.00
2018-11-25T01:51:40.758Z,0.00
2018-11-25T01:54:18.101Z,0.00
2018-11-25T02:03:38.145Z,0.00
2018-11-25T02:04:38.184Z,0.00
2018-11-25T02:05:33.684Z,0.00
2018-11-25T02:06:52.327Z,0.00
2018-11-25T02:07:36.752Z,0.00
2018-11-25T02:08:34.198Z,0.00
2018-11-25T02:09:53.176Z,0.00
2018-11-25T02:10:55.616Z,0.00
2018-11-25T02:13:46.250Z,0.00
2018-11-25T02:14:06.573Z,0.00
2018-11-25T02:15:06.416Z,0.00
2018-11-25T02:16:06.897Z,0.00
2018-11-25T02:17:13.286Z,0.00
2018-11-25T02:26:20.053Z,0.00
2018-11-25T02:27:18.506Z,0.00
2018-11-25T02:27:57.545Z,0.00
2018-11-25T02:29:17.546Z,0.00
2018-11-25T02:32:00.751Z,0.00
2018-11-25T02:34:04.785Z,0.00
2018-11-25T02:35:09.285Z,0.00
2018-11-25T02:35:59.799Z,0.00
2018-11-25T02:38:42.624Z,0.00
2018-11-25T02:40:06.177Z,0.00
2018-11-25T02:42:11.284Z,0.00
2018-11-25T02:43:06.256Z,0.00
2018-11-25T02:44:25.350Z,0.00
2018-11-25T02:49:43.964Z,0.00
2018-11-25T02:51:05.467Z,0.00
2018-11-25T02:52:01.034Z,0.00
2018-11-25T02:52:39.141Z,0.00
2018-11-25T02:54:01.426Z,0.00
2018-11-25T02:55:03.036Z,0.00
2018-11-25T02:56:07.473Z,0.00
2018-11-25T02:56:46.471Z,0.00
2018-11-25T02:58:03.636Z,0.00
2018-11-25T02:58:43.420Z,0.00
2018-11-25T02:59:39.688Z,0.00
2018-11-25T03:00:41.438Z,0.00
2018-11-25T03:01:41.971Z,0.00
2018-11-25T03:08:02.472Z,0.00
2018-11-25T03:14:02.874Z,0.00
2018-11-25T03:14:43.402Z,0.00
2018-11-25T03:15:31.855Z,0.00
2018-11-25T03:16:36.867Z,0.00
2018-11-25T03:17:14.881Z,0.00
2018-11-25T03:18:31.338Z,0.00
2018-11-25T03:20:46.371Z,0.00
2018-11-25T03:22:08.791Z,0.00
2018-11-25T03:23:02.790Z,0.00
2018-11-25T03:24:10.883Z,0.00
2018-11-25T03:25:03.311Z,0.00
2018-11-25T03:29:17.076Z,0.00
2018-11-25T03:29:47.987Z,0.00
2018-11-25T03:30:52.004Z,0.00
2018-11-25T03:31:47.046Z,0.00
2018-11-25T03:32:47.457Z,0.00
2018-11-25T03:33:50.944Z,0.00
2018-11-25T03:35:01.502Z,0.00
2018-11-25T03:37:24.143Z,0.00
2018-11-25T03:40:09.933Z,0.00
2018-11-25T03:42:48.254Z,0.00
2018-11-25T03:46:38.430Z,0.00
2018-11-25T03:47:51.571Z,0.00
2018-11-25T03:52:14.110Z,0.00
2018-11-25T03:53:01.587Z,0.00
2018-11-25T03:59:49.440Z,0.00
2018-11-25T04:01:14.250Z,0.00
2018-11-25T04:03:30.493Z,0.00
2018-11-25T04:04:15.257Z,0.00
2018-11-25T04:05:16.962Z,0.00
2018-11-25T04:06:27.021Z,0.00
2018-11-25T04:07:17.834Z,0.00
2018-11-25T04:08:36.572Z,0.00
2018-11-25T04:09:51.074Z,0.00
2018-11-25T04:10:16.319Z,0.00
2018-11-25T04:11:36.558Z,0.00
2018-11-25T04:12:18.018Z,0.00
2018-11-25T04:13:37.873Z,0.00
2018-11-25T04:16:00.698Z,0.00
2018-11-25T04:16:51.677Z,0.00
2018-11-25T04:17:54.215Z,0.00
2018-11-25T04:19:24.741Z,0.00
2018-11-25T04:19:58.703Z,0.00
2018-11-25T04:21:03.699Z,0.00
2018-11-25T04:21:50.146Z,0.00
2018-11-25T04:22:51.173Z,0.00
2018-11-25T04:23:48.479Z,0.00
2018-11-25T04:24:56.659Z,0.00
2018-11-25T04:25:50.691Z,0.00
2018-11-25T04:26:51.694Z,0.00
2018-11-25T04:27:49.023Z,0.00
2018-11-25T04:28:50.160Z,0.00
2018-11-25T04:30:10.378Z,0.00
2018-11-25T04:30:55.193Z,0.00
2018-11-25T04:31:49.767Z,0.00
2018-11-25T04:32:54.658Z,0.00
2018-11-25T04:33:53.197Z,0.00
2018-11-25T04:34:51.146Z,0.00
2018-11-25T04:35:54.198Z,0.00
2018-11-25T04:39:05.652Z,0.00
2018-11-25T04:46:07.015Z,0.00
2018-11-25T04:47:36.851Z,0.00
2018-11-25T04:48:19.653Z,0.00
2018-11-25T04:52:16.573Z,0.00
2018-11-25T04:53:08.650Z,0.00
2018-11-25T04:54:23.601Z,0.00
2018-11-25T04:56:43.160Z,0.00
2018-11-25T04:58:16.700Z,0.00
2018-11-25T04:58:43.376Z,0.00
2018-11-25T04:59:48.678Z,0.00
2018-11-25T05:00:44.521Z,0.00
2018-11-25T05:01:48.140Z,0.00
2018-11-25T05:04:16.607Z,0.00
2018-11-25T05:05:42.397Z,0.00
2018-11-25T05:06:35.837Z,0.00
2018-11-25T05:07:17.814Z,0.00
2018-11-25T05:08:17.306Z,0.00
2018-11-25T05:09:39.318Z,0.00
2018-11-25T05:11:51.377Z,0.00
2018-11-25T05:12:49.529Z,0.00
2018-11-25T05:14:13.549Z,0.00
2018-11-25T05:15:12.049Z,0.00
2018-11-25T05:15:48.768Z,0.00
2018-11-25T05:16:49.049Z,0.00
2018-11-25T05:17:53.015Z,0.00
2018-11-25T05:19:05.020Z,0.00
2018-11-25T05:20:00.128Z,0.00
2018-11-25T05:20:52.021Z,0.00
2018-11-25T05:21:52.974Z,0.00
2018-11-25T05:23:18.482Z,0.00
2018-11-25T05:23:53.502Z,0.00
2018-11-25T05:27:03.086Z,0.00
2018-11-25T05:27:49.602Z,0.00
2018-11-25T05:32:04.317Z,0.00
2018-11-25T05:33:11.786Z,0.00
2018-11-25T05:33:50.532Z,0.00
2018-11-25T05:36:28.115Z,0.00
2018-11-25T05:37:21.527Z,0.00
2018-11-25T05:38:23.704Z,0.00
2018-11-25T05:39:50.418Z,0.00
2018-11-25T06:09:10.660Z,0.00
2018-11-25T06:17:43.517Z,0.00
2018-11-25T06:21:45.201Z,0.00
2018-11-25T06:23:17.205Z,0.00
2018-11-25T06:23:49.206Z,0.00
2018-11-25T06:35:58.524Z,0.00
2018-11-25T06:37:08.984Z,0.00
2018-11-25T06:44:03.056Z,0.00
2018-11-25T06:45:02.642Z,0.00
2018-11-25T06:45:59.987Z,0.00
2018-11-25T06:50:27.276Z,0.00
2018-11-25T06:51:04.386Z,0.00
2018-11-25T06:54:07.778Z,0.00
2018-11-25T06:56:09.565Z,5.63
2018-11-25T06:57:06.555Z,5.63
2018-11-25T06:58:08.588Z,5.63
2018-11-25T06:59:06.806Z,5.63
2018-11-25T07:00:14.595Z,5.63
2018-11-25T07:01:08.186Z,5.63
2018-11-25T07:02:11.089Z,5.63
2018-11-25T07:03:09.355Z,5.63
2018-11-25T07:04:14.578Z,5.63
2018-11-25T07:05:08.545Z,5.63
2018-11-25T07:06:08.156Z,5.63
2018-11-25T07:07:08.380Z,5.63
2018-11-25T07:08:10.074Z,5.63
2018-11-25T07:09:09.889Z,11.25
2018-11-25T07:10:08.903Z,11.25
2018-11-25T07:11:09.134Z,11.25
2018-11-25T07:12:11.078Z,11.25
2018-11-25T07:13:09.555Z,11.25
2018-11-25T07:14:10.662Z,11.25
2018-11-25T07:15:09.758Z,11.25
2018-11-25T07:16:11.581Z,11.25
2018-11-25T07:17:11.671Z,11.25
2018-11-25T07:18:12.071Z,11.25
2018-11-25T07:19:17.082Z,11.25
2018-11-25T07:20:13.579Z,11.25
2018-11-25T07:21:12.534Z,11.25
2018-11-25T07:22:14.573Z,11.25
2018-11-25T07:23:11.187Z,16.88
2018-11-25T07:24:40.110Z,16.88
2018-11-25T07:25:15.113Z,16.88
2018-11-25T07:26:13.778Z,22.50
2018-11-25T07:27:13.611Z,22.50
2018-11-25T07:28:18.542Z,22.50
2018-11-25T07:29:23.120Z,22.50
2018-11-25T07:30:12.454Z,22.50
2018-11-25T07:31:15.129Z,22.50
2018-11-25T07:32:18.081Z,22.50
2018-11-25T07:33:21.539Z,22.50
2018-11-25T07:34:21.606Z,22.50
2018-11-25T07:35:37.087Z,22.50
2018-11-25T07:36:14.031Z,28.13
2018-11-25T07:37:13.506Z,28.13
2018-11-25T07:38:15.649Z,33.75
2018-11-25T07:39:15.631Z,39.38
2018-11-25T07:40:15.644Z,45.00
2018-11-25T07:41:22.050Z,50.63
2018-11-25T07:42:15.272Z,50.63
2018-11-25T07:43:21.083Z,56.25
2018-11-25T07:44:27.577Z,56.25
2018-11-25T07:45:15.915Z,56.25
2018-11-25T07:46:18.534Z,56.25
2018-11-25T07:47:32.538Z,56.25
2018-11-25T07:48:16.070Z,61.88
2018-11-25T07:49:17.117Z,61.88
2018-11-25T07:50:19.113Z,61.88
2018-11-25T07:51:24.091Z,67.50
2018-11-25T07:52:22.586Z,73.13
2018-11-25T07:53:20.619Z,73.13
2018-11-25T07:54:19.072Z,73.13
2018-11-25T07:57:04.642Z,78.75
2018-11-25T07:58:26.839Z,78.75
2018-11-25T07:58:49.140Z,78.75
2018-11-25T07:59:49.332Z,78.75
2018-11-25T08:00:57.227Z,78.75
2018-11-25T08:01:50.064Z,73.13
2018-11-25T08:02:51.685Z,61.88
2018-11-25T08:03:52.608Z,50.63
2018-11-25T08:04:53.162Z,45.00
2018-11-25T08:05:54.394Z,45.00
2018-11-25T08:06:54.156Z,45.00
2018-11-25T08:08:12.771Z,39.38
2018-11-25T08:08:52.876Z,39.38
2018-11-25T08:09:55.627Z,45.00
2018-11-25T08:11:21.128Z,45.00
2018-11-25T08:12:14.155Z,45.00
2018-11-25T08:13:14.169Z,45.00
2018-11-25T08:13:51.734Z,50.63
2018-11-25T08:14:52.015Z,56.25
2018-11-25T08:15:53.681Z,61.88
2018-11-25T08:16:54.672Z,67.50
2018-11-25T08:18:13.551Z,73.13
2018-11-25T08:19:16.680Z,78.75
2018-11-25T08:19:55.633Z,84.38
2018-11-25T08:56:52.788Z,78.75
2018-11-25T08:58:01.407Z,73.13
2018-11-25T09:03:16.766Z,67.50
2018-11-25T09:04:17.119Z,61.88
2018-11-25T09:07:13.398Z,73.13
2018-11-25T09:07:42.334Z,78.75
2018-11-25T09:08:42.281Z,78.75
2018-11-25T09:09:56.259Z,78.75
2018-11-25T09:10:42.794Z,78.75
2018-11-25T09:11:42.741Z,84.38
2018-11-25T09:12:43.249Z,90.00
2018-11-25T09:13:45.293Z,95.63
2018-11-25T09:14:43.261Z,101.25
2018-11-25T09:15:43.769Z,112.50
2018-11-25T09:16:46.748Z,118.13
2018-11-25T09:17:42.171Z,129.38
2018-11-25T09:18:42.384Z,135.00
2018-11-25T09:19:43.603Z,135.00
2018-11-25T09:20:44.747Z,140.63
2018-11-25T09:21:42.976Z,140.63
2018-11-25T09:22:43.217Z,135.00
2018-11-25T09:23:44.339Z,135.00
2018-11-25T09:24:45.339Z,129.38
2018-11-25T09:25:45.245Z,123.75
2018-11-25T09:26:59.745Z,123.75
2018-11-25T09:27:44.966Z,123.75
2018-11-25T09:28:52.306Z,123.75
2018-11-25T09:29:51.263Z,123.75
2018-11-25T09:30:52.245Z,118.13
2018-11-25T09:31:46.284Z,118.13
2018-11-25T09:32:48.768Z,112.50
2018-11-25T09:33:48.786Z,101.25
2018-11-25T09:34:45.177Z,95.63
2018-11-25T09:35:46.769Z,90.00
2018-11-25T09:36:45.477Z,95.63
2018-11-25T09:37:45.675Z,95.63
2018-11-25T09:38:45.912Z,101.25
2018-11-25T09:39:47.752Z,112.50
2018-11-25T09:40:46.206Z,129.38
2018-11-25T09:42:09.257Z,135.00
2018-11-25T09:42:48.311Z,146.25
2018-11-25T09:43:46.774Z,151.88
2018-11-25T09:44:47.993Z,157.50
2018-11-25T09:45:48.765Z,163.13
2018-11-25T09:46:49.268Z,163.13
2018-11-25T09:47:47.521Z,151.88
2018-11-25T09:49:03.251Z,140.63
2018-11-25T09:49:55.754Z,135.00
2018-11-25T09:50:49.741Z,129.38
2018-11-25T09:51:49.759Z,135.00
2018-11-25T09:53:03.748Z,140.63
2018-11-25T09:53:50.247Z,151.88
2018-11-25T09:54:50.242Z,168.75
2018-11-25T09:56:04.242Z,180.00
2018-11-25T09:56:48.831Z,191.25
2018-11-25T09:57:52.745Z,185.63
2018-11-25T09:58:52.746Z,180.00
2018-11-25T09:59:51.271Z,174.38
2018-11-25T10:00:49.511Z,174.38
2018-11-25T10:01:49.692Z,180.00
2018-11-25T10:02:53.747Z,196.88
2018-11-25T10:03:50.069Z,219.38
2018-11-25T10:04:52.249Z,236.25
2018-11-25T10:05:51.501Z,241.88
2018-11-25T10:06:50.657Z,247.50
2018-11-25T10:07:59.294Z,258.75
2018-11-25T10:08:56.745Z,270.00
2018-11-25T10:10:13.743Z,286.88
2018-11-25T10:10:52.731Z,298.13
2018-11-25T10:11:53.251Z,315.00
2018-11-25T10:12:51.827Z,320.63
2018-11-25T10:13:52.078Z,326.25
2018-11-25T10:14:52.175Z,331.88
2018-11-25T10:15:52.395Z,365.63
2018-11-25T10:16:52.611Z,421.88
2018-11-25T10:17:59.922Z,478.13
2018-11-25T10:19:05.960Z,523.13
2018-11-25T10:20:04.745Z,568.13
2018-11-25T10:20:58.210Z,624.38
2018-11-25T10:57:34.325Z,421.88
2018-11-25T10:58:14.212Z,438.75
2018-11-25T10:59:13.467Z,438.75
2018-11-25T11:00:14.699Z,416.25
2018-11-25T11:01:13.898Z,410.63
2018-11-25T11:02:15.693Z,416.25
2018-11-25T11:03:15.721Z,427.50
2018-11-25T11:04:17.193Z,410.63
2018-11-25T11:05:14.525Z,427.50
2018-11-25T11:06:14.739Z,427.50
2018-11-25T11:07:14.953Z,466.88
2018-11-25T11:08:15.177Z,489.38
2018-11-25T11:09:15.388Z,483.75
2018-11-25T11:10:17.269Z,489.38
2018-11-25T11:11:16.791Z,545.63
2018-11-25T11:12:17.008Z,573.75
2018-11-25T11:13:19.189Z,495.00
2018-11-25T11:14:16.418Z,399.38
2018-11-25T11:15:18.185Z,348.75
2018-11-25T11:16:16.637Z,320.63
2018-11-25T11:17:16.859Z,298.13
2018-11-25T11:18:17.110Z,292.50
2018-11-25T11:19:19.227Z,286.88
2018-11-25T11:20:17.435Z,286.88
2018-11-25T11:21:17.634Z,281.25
2018-11-25T11:22:18.815Z,270.00
2018-11-25T11:23:19.032Z,275.63
2018-11-25T11:24:18.303Z,281.25
2018-11-25T11:25:22.236Z,298.13
2018-11-25T11:26:23.196Z,315.00
2018-11-25T11:27:20.225Z,337.50
2018-11-25T11:28:21.693Z,326.25
2018-11-25T11:29:19.070Z,292.50
2018-11-25T11:30:21.187Z,270.00
2018-11-25T11:31:21.838Z,258.75
2018-11-25T11:32:20.576Z,253.13
2018-11-25T11:33:23.194Z,247.50
2018-11-25T11:34:21.821Z,247.50
2018-11-25T11:35:20.050Z,247.50
2018-11-25T11:36:22.197Z,253.13
2018-11-25T11:37:20.414Z,258.75
2018-11-25T11:38:22.212Z,270.00
2018-11-25T11:39:20.664Z,303.75
2018-11-25T11:40:22.689Z,326.25
2018-11-25T11:41:21.023Z,348.75
2018-11-25T11:42:24.291Z,376.88
2018-11-25T11:43:23.189Z,405.00
2018-11-25T11:44:23.194Z,438.75
2018-11-25T11:45:21.804Z,489.38
2018-11-25T11:46:24.713Z,511.88
2018-11-25T11:47:23.057Z,489.38
2018-11-25T11:48:30.185Z,483.75
2018-11-25T11:49:22.401Z,489.38
2018-11-25T11:50:24.188Z,483.75
2018-11-25T11:51:25.851Z,438.75
2018-11-25T11:52:24.712Z,416.25
2018-11-25T11:53:26.691Z,416.25
2018-11-25T11:54:23.272Z,405.00
2018-11-25T11:55:23.468Z,388.13
2018-11-25T11:56:23.685Z,371.25
2018-11-25T11:57:23.888Z,371.25
2018-11-25T11:58:24.102Z,365.63
2018-11-25T11:59:26.239Z,360.00
2018-11-25T12:00:26.172Z,348.75
2018-11-25T12:01:26.687Z,337.50
2018-11-25T12:02:31.371Z,326.25
2018-11-25T12:03:26.839Z,309.38
2018-11-25T12:04:25.289Z,275.63
2018-11-25T12:05:25.489Z,247.50
2018-11-25T12:06:25.700Z,230.63
2018-11-25T12:07:25.911Z,213.75
2018-11-25T12:08:27.688Z,202.50
2018-11-25T12:09:26.276Z,191.25
2018-11-25T12:10:28.210Z,185.63
2018-11-25T12:11:28.197Z,174.38
2018-11-25T12:12:30.714Z,163.13
2018-11-25T12:13:26.932Z,151.88
2018-11-25T12:14:29.699Z,151.88
2018-11-25T12:15:30.714Z,151.88
2018-11-25T12:16:33.393Z,151.88
2018-11-25T12:17:29.203Z,146.25
2018-11-25T12:18:27.802Z,146.25
2018-11-25T12:19:29.708Z,140.63
2018-11-25T12:20:28.171Z,135.00
2018-11-25T12:21:28.369Z,129.38
2018-11-25T12:22:29.625Z,123.75
2018-11-25T12:23:30.719Z,118.13
2018-11-25T12:24:28.923Z,118.13
2018-11-25T12:25:29.132Z,118.13
2018-11-25T12:26:31.222Z,118.13
2018-11-25T12:27:31.199Z,118.13
2018-11-25T12:28:29.828Z,123.75
2018-11-25T12:29:29.988Z,129.38
2018-11-25T12:30:31.697Z,129.38
2018-11-25T12:31:30.394Z,140.63
2018-11-25T12:32:32.194Z,146.25
2018-11-25T12:33:30.814Z,157.50
2018-11-25T12:34:34.698Z,163.13
2018-11-25T12:35:33.712Z,168.75
2018-11-25T12:36:32.701Z,174.38
2018-11-25T12:37:36.199Z,174.38
2018-11-25T12:38:31.559Z,174.38
2018-11-25T12:39:33.222Z,168.75
2018-11-25T12:40:31.839Z,163.13
2018-11-25T12:41:32.034Z,151.88
2018-11-25T12:42:32.285Z,146.25
2018-11-25T12:43:34.207Z,146.25
2018-11-25T12:44:33.642Z,146.25
2018-11-25T12:45:34.688Z,140.63
2018-11-25T12:46:34.694Z,129.38
2018-11-25T12:47:34.692Z,123.75
2018-11-25T12:48:35.193Z,118.13
2018-11-25T12:49:33.435Z,118.13
2018-11-25T12:50:34.536Z,112.50
2018-11-25T12:51:36.738Z,112.50
2018-11-25T12:52:36.712Z,112.50
2018-11-25T12:53:35.740Z,112.50
2018-11-25T12:54:34.276Z,106.88
2018-11-25T12:55:35.497Z,106.88
2018-11-25T12:56:42.730Z,106.88
2018-11-25T12:57:34.906Z,101.25
2018-11-25T12:58:36.700Z,101.25
2018-11-25T12:59:35.301Z,95.63
2018-11-25T13:00:37.245Z,95.63
2018-11-25T13:01:38.144Z,90.00
2018-11-25T13:02:35.873Z,90.00
2018-11-25T13:03:37.693Z,90.00
2018-11-25T13:04:40.195Z,84.38
2018-11-25T13:05:36.405Z,84.38
2018-11-25T13:06:38.205Z,84.38
2018-11-25T13:07:38.743Z,84.38
2018-11-25T13:08:39.693Z,84.38
2018-11-25T13:09:38.706Z,78.75
2018-11-25T13:10:37.336Z,78.75
2018-11-25T13:11:39.199Z,84.38
2018-11-25T13:12:37.642Z,84.38
2018-11-25T13:13:37.868Z,90.00
2018-11-25T13:14:43.693Z,84.38
2018-11-25T13:15:43.793Z,84.38
2018-11-25T13:16:39.370Z,84.38
2018-11-25T13:17:38.614Z,84.38
2018-11-25T13:18:40.699Z,84.38
2018-11-25T13:19:40.690Z,84.38
2018-11-25T13:20:40.701Z,90.00
2018-11-25T13:21:39.276Z,95.63
2018-11-25T13:22:41.235Z,95.63
2018-11-25T13:23:43.253Z,90.00
2018-11-25T13:24:39.870Z,90.00
2018-11-25T13:25:40.070Z,84.38
2018-11-25T13:26:44.192Z,84.38
2018-11-25T13:27:42.207Z,78.75
2018-11-25T13:28:42.195Z,78.75
2018-11-25T13:29:40.765Z,84.38
2018-11-25T13:30:47.754Z,78.75
2018-11-25T13:31:42.698Z,73.13
2018-11-25T13:32:43.199Z,73.13
2018-11-25T13:33:41.408Z,73.13
2018-11-25T13:34:49.207Z,73.13
2018-11-25T13:35:43.707Z,73.13
2018-11-25T13:36:42.929Z,67.50
2018-11-25T13:37:43.743Z,73.13
2018-11-25T13:38:44.198Z,73.13
2018-11-25T13:39:49.197Z,67.50
2018-11-25T13:40:46.246Z,67.50
2018-11-25T13:41:44.191Z,61.88
2018-11-25T13:42:44.717Z,61.88
2018-11-25T13:43:49.166Z,67.50
2018-11-25T13:44:45.195Z,67.50
2018-11-25T13:45:43.395Z,61.88
2018-11-25T13:46:49.608Z,56.25
2018-11-25T13:47:43.848Z,50.63
2018-11-25T13:48:45.738Z,50.63
2018-11-25T13:49:47.705Z,50.63
2018-11-25T13:50:46.195Z,50.63
2018-11-25T13:51:44.509Z,56.25
2018-11-25T13:52:44.723Z,61.88
2018-11-25T13:53:46.697Z,67.50
2018-11-25T13:54:47.656Z,78.75
2018-11-25T13:55:45.403Z,73.13
2018-11-25T13:56:47.235Z,67.50
2018-11-25T13:57:47.734Z,61.88
2018-11-25T13:58:46.912Z,56.25
2018-11-25T13:59:49.705Z,50.63
2018-11-25T14:00:50.200Z,50.63
2018-11-25T14:01:48.208Z,50.63
2018-11-25T14:02:48.191Z,45.00
2018-11-25T14:03:46.641Z,45.00
2018-11-25T14:04:48.884Z,45.00
2018-11-25T14:05:53.164Z,50.63
2018-11-25T14:06:48.712Z,50.63
2018-11-25T14:07:48.331Z,50.63
2018-11-25T14:08:49.196Z,56.25
2018-11-25T14:09:51.193Z,56.25
2018-11-25T14:10:51.696Z,50.63
2018-11-25T14:11:47.933Z,50.63
2018-11-25T14:12:50.702Z,50.63
2018-11-25T14:13:48.153Z,50.63
2018-11-25T14:14:50.208Z,56.25
2018-11-25T14:15:50.203Z,56.25
2018-11-25T14:16:48.707Z,56.25
2018-11-25T14:17:48.802Z,56.25
2018-11-25T14:18:50.691Z,56.25
2018-11-25T14:19:50.720Z,56.25
2018-11-25T14:20:50.710Z,50.63
2018-11-25T14:21:49.289Z,56.25
2018-11-25T14:22:51.243Z,56.25
2018-11-25T14:23:57.194Z,61.88
2018-11-25T14:24:51.714Z,61.88
2018-11-25T14:25:49.937Z,67.50
2018-11-25T14:26:50.132Z,61.88
2018-11-25T14:27:52.196Z,61.88
2018-11-25T14:28:52.235Z,67.50
2018-11-25T14:29:52.692Z,67.50
2018-11-25T14:30:50.913Z,67.50
2018-11-25T14:31:52.131Z,61.88
2018-11-25T14:32:51.347Z,61.88
2018-11-25T14:33:51.551Z,56.25
2018-11-25T14:34:51.773Z,50.63
2018-11-25T14:35:52.040Z,50.63
2018-11-25T14:36:53.755Z,45.00
2018-11-25T14:37:59.266Z,45.00
2018-11-25T14:38:53.446Z,45.00
2018-11-25T14:39:52.726Z,39.38
2018-11-25T14:40:54.696Z,39.38
2018-11-25T14:41:54.704Z,39.38
2018-11-25T14:42:56.692Z,33.75
2018-11-25T14:43:55.207Z,33.75
2018-11-25T14:44:54.441Z,33.75
2018-11-25T14:45:54.543Z,28.13
2018-11-25T14:46:56.729Z,28.13
2018-11-25T14:47:53.947Z,28.13
2018-11-25T14:48:57.694Z,22.50
2018-11-25T14:49:54.291Z,22.50
2018-11-25T14:50:56.199Z,16.88
2018-11-25T14:51:56.225Z,16.88
2018-11-25T14:52:56.193Z,16.88
2018-11-25T14:53:58.729Z,16.88
2018-11-25T14:54:55.078Z,11.25
2018-11-25T14:55:55.284Z,11.25
2018-11-25T14:56:57.221Z,11.25
2018-11-25T14:57:55.701Z,11.25
2018-11-25T14:58:55.800Z,11.25
2018-11-25T14:59:56.009Z,11.25
2018-11-25T15:00:58.197Z,11.25
2018-11-25T15:02:04.369Z,11.25
2018-11-25T15:03:00.192Z,11.25
2018-11-25T15:03:56.662Z,11.25
2018-11-25T15:04:59.693Z,5.63
2018-11-25T15:06:00.710Z,5.63
2018-11-25T15:06:58.697Z,5.63
2018-11-25T15:07:58.271Z,5.63
2018-11-25T15:09:00.397Z,5.63
2018-11-25T15:09:59.933Z,5.63
2018-11-25T15:10:59.696Z,0.00
2018-11-25T15:11:57.911Z,0.00
2018-11-25T15:13:00.692Z,0.00
2018-11-25T15:13:59.280Z,0.00
2018-11-25T15:15:00.243Z,0.00
2018-11-25T15:16:14.202Z,0.00
2018-11-25T15:17:02.720Z,0.00
2018-11-25T15:17:59.069Z,0.00
2018-11-25T15:18:59.493Z,0.00
2018-11-25T15:19:59.738Z,0.00
2018-11-25T15:21:01.200Z,0.00
2018-11-25T15:21:59.942Z,0.00
2018-11-25T15:23:01.721Z,0.00
2018-11-25T15:24:08.213Z,0.00
2018-11-25T15:25:02.195Z,0.00
2018-11-25T15:26:02.211Z,0.00
2018-11-25T15:27:00.842Z,0.00
2018-11-25T15:28:00.930Z,0.00
2018-11-25T15:29:02.147Z,0.00
2018-11-25T15:30:04.194Z,0.00
2018-11-25T15:31:03.221Z,0.00
2018-11-25T15:32:01.699Z,0.00
2018-11-25T15:33:08.309Z,0.00
2018-11-25T15:34:03.704Z,0.00
2018-11-25T15:35:03.696Z,0.00
2018-11-25T15:36:02.294Z,0.00
2018-11-25T15:37:04.279Z,0.00
2018-11-25T15:38:03.393Z,0.00
2018-11-25T15:39:27.697Z,0.00
2018-11-25T15:40:06.705Z,0.00
2018-11-25T15:41:24.199Z,0.00
2018-11-25T15:42:05.206Z,0.00
2018-11-25T15:43:06.223Z,0.00
2018-11-25T15:44:03.756Z,0.00
2018-11-25T15:45:11.654Z,0.00
2018-11-25T15:46:03.997Z,0.00
2018-11-25T15:47:08.271Z,0.00
2018-11-25T15:48:08.199Z,0.00
2018-11-25T15:49:06.189Z,0.00
2018-11-25T15:50:04.648Z,0.00
2018-11-25T15:51:04.898Z,0.00
2018-11-25T15:52:08.736Z,0.00
2018-11-25T15:53:06.717Z,0.00
2018-11-25T15:54:06.837Z,0.00
2018-11-25T15:55:05.636Z,0.00
2018-11-25T15:56:05.868Z,0.00
2018-11-25T15:57:07.714Z,0.00
2018-11-25T15:58:11.721Z,0.00
2018-11-25T15:59:08.217Z,0.00
2018-11-25T16:00:08.196Z,0.00
2018-11-25T16:01:08.204Z,0.00
2018-11-25T16:02:10.717Z,0.00
2018-11-25T16:03:06.929Z,0.00
2018-11-25T16:04:07.653Z,0.00
2018-11-25T16:05:07.258Z,0.00
2018-11-25T16:06:15.242Z,0.00
2018-11-25T16:07:07.676Z,0.00
2018-11-25T16:08:09.716Z,0.00
2018-11-25T16:09:08.934Z,0.00
2018-11-25T16:10:08.153Z,0.00
2018-11-25T16:11:12.197Z,0.00
2018-11-25T16:12:09.546Z,0.00
2018-11-25T16:13:09.209Z,0.00
2018-11-25T16:14:08.801Z,0.00
2018-11-25T16:15:12.693Z,0.00
2018-11-25T16:16:09.173Z,0.00
2018-11-25T16:17:18.295Z,0.00
2018-11-25T16:18:09.481Z,0.00
2018-11-25T16:19:13.206Z,0.00
2018-11-25T16:20:12.660Z,0.00
2018-11-25T16:21:11.136Z,0.00
2018-11-25T16:22:10.364Z,0.00
2018-11-25T16:23:32.590Z,0.00
2018-11-25T16:24:18.699Z,0.00
2018-11-25T16:25:14.697Z,0.00
2018-11-25T16:26:14.698Z,0.00
2018-11-25T16:27:11.149Z,0.00
2018-11-25T16:28:12.376Z,0.00
2018-11-25T16:29:13.230Z,0.00
2018-11-25T16:30:11.709Z,0.00
2018-11-25T16:31:11.913Z,0.00
2018-11-25T16:32:17.706Z,0.00
2018-11-25T16:33:12.327Z,0.00
2018-11-25T16:34:19.233Z,0.00
2018-11-25T16:35:18.196Z,0.00
2018-11-25T16:36:14.399Z,0.00
2018-11-25T16:37:14.695Z,0.00
2018-11-25T16:38:14.705Z,0.00
2018-11-25T16:39:15.224Z,0.00
2018-11-25T16:40:15.220Z,0.00
2018-11-25T16:41:17.166Z,0.00
2018-11-25T16:42:13.901Z,0.00
2018-11-25T16:43:15.737Z,0.00
2018-11-25T16:44:17.198Z,0.00
2018-11-25T16:45:14.442Z,0.00
2018-11-25T16:46:37.257Z,0.00
2018-11-25T16:47:16.758Z,0.00
2018-11-25T16:48:18.741Z,0.00
2018-11-25T16:49:16.747Z,0.00
2018-11-25T16:50:24.511Z,0.00
2018-11-25T16:51:17.199Z,0.00
2018-11-25T16:52:15.810Z,0.00
2018-11-25T16:53:15.978Z,0.00
2018-11-25T16:54:16.178Z,0.00
2018-11-25T16:55:19.199Z,0.00
2018-11-25T16:56:18.205Z,0.00
2018-11-25T16:57:18.205Z,0.00
2018-11-25T16:58:18.702Z,0.00
2018-11-25T16:59:18.724Z,0.00
2018-11-25T17:00:17.118Z,0.00
2018-11-25T17:01:19.225Z,0.00
2018-11-25T17:02:21.196Z,0.00
2018-11-25T17:03:21.235Z,0.00
2018-11-25T17:04:19.703Z,0.00
2018-11-25T17:05:18.038Z,0.00
2018-11-25T17:06:18.254Z,0.00
2018-11-25T17:07:20.154Z,0.00
2018-11-25T17:08:18.645Z,0.00
2018-11-25T17:09:20.698Z,0.00
2018-11-25T17:10:21.708Z,0.00
2018-11-25T17:11:21.711Z,0.00
2018-11-25T17:12:19.294Z,0.00
2018-11-25T17:13:31.213Z,0.00
2018-11-25T17:14:19.677Z,0.00
2018-11-25T17:15:21.738Z,0.00
2018-11-25T17:16:20.087Z,0.00
2018-11-25T17:17:20.298Z,0.00
2018-11-25T17:18:21.158Z,0.00
2018-11-25T17:19:20.639Z,0.00
2018-11-25T17:20:43.719Z,0.00
2018-11-25T17:21:21.035Z,0.00
2018-11-25T17:22:21.236Z,0.00
2018-11-25T17:23:21.439Z,0.00
2018-11-25T17:24:23.200Z,0.00
2018-11-25T17:25:22.225Z,0.00
2018-11-25T17:26:21.953Z,0.00
2018-11-25T17:27:23.703Z,0.00
2018-11-25T17:28:23.720Z,0.00
2018-11-25T17:29:25.652Z,0.00
2018-11-25T17:30:25.190Z,0.00
2018-11-25T17:31:22.659Z,0.00
2018-11-25T17:32:23.917Z,0.00
2018-11-25T17:33:24.744Z,0.00
2018-11-25T17:34:25.214Z,0.00
2018-11-25T17:35:23.425Z,0.00
2018-11-25T17:36:24.692Z,0.00
2018-11-25T17:37:23.795Z,0.00
2018-11-25T17:38:25.716Z,0.00
2018-11-25T17:39:25.702Z,0.00
2018-11-25T17:40:24.275Z,0.00
2018-11-25T17:41:26.198Z,0.00
2018-11-25T17:42:32.207Z,0.00
2018-11-25T17:43:26.705Z,0.00
2018-11-25T17:44:26.720Z,0.00
2018-11-25T17:45:40.698Z,0.00